Time;durP1;ratioP1;P1;durP2;ratioP2;P2;SDS_P1;SDS_P2;PMS_P1;PMS_P2;Temp;Humidity;BMP_temperature;BMP_pressure;BME280_temperature;BME280_humidity;BME280_pressure;Samples;Min_cycle;Max_cycle;Signal;HPM_P1;HPM_P2
2022/12/27 00:02:02;;;;;;;102.10;32.03;;;8.50;98.60;;;;;;5033583;28;20559;-66
2022/12/27 00:04:30;;;;;;;116.27;34.40;;;8.50;98.60;;;;;;5034983;28;20621;-66
2022/12/27 00:06:57;;;;;;;96.73;32.43;;;8.60;98.70;;;;;;5036330;28;20233;-66
2022/12/27 00:09:24;;;;;;;80.13;34.40;;;8.60;98.70;;;;;;5035527;28;20230;-66
2022/12/27 00:11:51;;;;;;;143.40;35.30;;;8.70;98.80;;;;;;5035094;28;20693;-66
2022/12/27 00:14:25;;;;;;;88.87;35.17;;;8.70;98.80;;;;;;5033356;28;20262;-66
2022/12/27 00:16:53;;;;;;;112.97;39.30;;;8.70;98.80;;;;;;5038334;28;20218;-67
2022/12/27 00:19:20;;;;;;;125.40;40.90;;;8.80;98.80;;;;;;5033924;28;20187;-66
2022/12/27 00:21:47;;;;;;;96.97;37.07;;;8.80;98.80;;;;;;5032863;28;20198;-66
2022/12/27 00:24:14;;;;;;;84.33;36.63;;;8.90;98.90;;;;;;5031577;28;20202;-66
2022/12/27 00:26:42;;;;;;;89.07;38.87;;;8.90;98.90;;;;;;5037088;28;20637;-66
2022/12/27 00:29:09;;;;;;;76.80;36.93;;;8.90;99.00;;;;;;5035379;28;20210;-66
2022/12/27 00:31:36;;;;;;;87.87;38.47;;;9.00;98.90;;;;;;5034473;28;20626;-66
2022/12/27 00:34:06;;;;;;;80.23;38.80;;;9.00;98.90;;;;;;5034241;28;20209;-66
2022/12/27 00:36:34;;;;;;;74.10;37.37;;;9.00;98.90;;;;;;5036180;28;20258;-66
2022/12/27 00:39:02;;;;;;;61.90;36.43;;;9.10;98.90;;;;;;5037097;28;20287;-66
2022/12/27 00:41:30;;;;;;;95.57;40.50;;;9.10;98.90;;;;;;5035565;28;20637;-65
2022/12/27 00:43:57;;;;;;;78.27;39.87;;;9.10;98.90;;;;;;5033591;28;20202;-66
2022/12/27 00:46:24;;;;;;;76.40;39.20;;;9.10;98.90;;;;;;5035140;28;20211;-66
2022/12/27 00:48:51;;;;;;;65.47;38.10;;;9.10;98.80;;;;;;5033699;28;20206;-66
2022/12/27 00:51:23;;;;;;;76.00;38.37;;;9.10;98.80;;;;;;5037046;28;20206;-66
2022/12/27 00:53:51;;;;;;;70.30;37.57;;;9.10;98.80;;;;;;5034039;28;20251;-66
2022/12/27 00:56:27;;;;;;;64.40;37.27;;;9.10;98.80;;;;;;5038248;28;20217;-66
2022/12/27 00:58:56;;;;;;;68.17;40.33;;;9.10;98.70;;;;;;5032137;28;20292;-66
2022/12/27 01:01:26;;;;;;;72.17;39.63;;;9.10;98.70;;;;;;5033165;28;20201;-66
2022/12/27 01:03:55;;;;;;;82.33;43.70;;;9.10;98.70;;;;;;5032416;28;20206;-66
2022/12/27 01:06:27;;;;;;;78.80;43.40;;;9.10;98.80;;;;;;5036268;28;20200;-66
2022/12/27 01:08:55;;;;;;;79.27;42.10;;;9.10;98.70;;;;;;5036745;28;20208;-66
2022/12/27 01:11:23;;;;;;;75.97;41.13;;;9.10;98.70;;;;;;5032400;28;20210;-66
2022/12/27 01:13:50;;;;;;;72.63;41.67;;;9.10;98.80;;;;;;5029463;28;20687;-66
2022/12/27 01:16:20;;;;;;;75.13;44.27;;;9.10;98.70;;;;;;5035316;28;20214;-66
2022/12/27 01:18:48;;;;;;;87.23;45.07;;;9.10;98.70;;;;;;5030605;28;20592;-66
2022/12/27 01:21:19;;;;;;;73.90;42.73;;;9.10;98.70;;;;;;5034728;28;20191;-66
2022/12/27 01:23:47;;;;;;;71.40;39.87;;;9.20;98.70;;;;;;5031683;28;20648;-66
2022/12/27 01:26:17;;;;;;;81.50;46.83;;;9.20;98.70;;;;;;5038557;28;20198;-66
2022/12/27 01:28:45;;;;;;;92.73;46.90;;;9.20;98.70;;;;;;5035020;28;20221;-66
2022/12/27 01:31:16;;;;;;;79.73;45.10;;;9.20;98.70;;;;;;5032169;28;20195;-66
2022/12/27 01:33:43;;;;;;;80.20;45.20;;;9.20;98.70;;;;;;5032264;28;20255;-66
2022/12/27 01:36:16;;;;;;;86.70;46.50;;;9.20;98.70;;;;;;5031481;28;20262;-66
2022/12/27 01:38:43;;;;;;;84.70;44.57;;;9.30;98.70;;;;;;5031169;28;20212;-66
2022/12/27 01:44:39;;;;;;;89.50;48.77;;;9.30;98.50;;;;;;5033327;28;20195;-66
2022/12/27 01:47:12;;;;;;;81.17;46.73;;;9.30;98.50;;;;;;5029967;28;20507;-66
2022/12/27 01:50:06;;;;;;;94.27;50.53;;;9.30;98.60;;;;;;5035130;28;20207;-66
2022/12/27 01:52:47;;;;;;;88.13;46.33;;;9.30;98.70;;;;;;5031710;28;20208;-66
2022/12/27 01:55:42;;;;;;;85.53;47.00;;;9.30;98.80;;;;;;5032776;28;20227;-67
2022/12/27 01:58:29;;;;;;;90.23;47.83;;;9.30;98.80;;;;;;5034376;28;20215;-66
2022/12/27 02:00:57;;;;;;;102.07;48.70;;;9.30;98.80;;;;;;5035245;28;20584;-66
2022/12/27 02:03:31;;;;;;;87.30;46.87;;;9.30;98.80;;;;;;5036668;28;20576;-66
2022/12/27 02:06:01;;;;;;;84.53;46.30;;;9.30;98.80;;;;;;5036947;28;20203;-66
2022/12/27 02:08:37;;;;;;;96.67;47.93;;;9.30;98.80;;;;;;5038780;28;20206;-66
2022/12/27 02:11:07;;;;;;;100.63;50.17;;;9.40;98.90;;;;;;5038982;28;20545;-67
2022/12/27 02:13:38;;;;;;;84.33;46.90;;;9.40;99.10;;;;;;5036610;28;20251;-66
2022/12/27 02:16:17;;;;;;;81.93;47.37;;;9.40;98.80;;;;;;5041966;28;20206;-66
2022/12/27 02:18:46;;;;;;;82.87;45.00;;;9.40;98.80;;;;;;5036047;28;20233;-67
2022/12/27 02:21:24;;;;;;;87.90;46.33;;;9.40;98.80;;;;;;5036996;28;20204;-66
2022/12/27 02:24:23;;;;;;;75.63;44.00;;;9.40;98.90;;;;;;5039239;28;20212;-67
2022/12/27 02:27:05;;;;;;;78.83;44.30;;;9.40;98.90;;;;;;5036185;28;20592;-66
2022/12/27 02:29:50;;;;;;;78.77;44.27;;;9.40;98.90;;;;;;5039834;28;20254;-66
2022/12/27 02:32:20;;;;;;;75.10;43.77;;;9.40;98.90;;;;;;5035026;28;20213;-66
2022/12/27 02:35:09;;;;;;;81.13;44.93;;;9.40;98.90;;;;;;5035348;28;20644;-66
2022/12/27 02:37:44;;;;;;;77.50;44.33;;;9.40;98.90;;;;;;5038518;28;20551;-66
2022/12/27 02:58:54;;;;;;;68.67;40.27;;;9.50;98.80;;;;;;5036831;28;20236;-65
2022/12/27 03:04:39;;;;;;;69.80;41.27;;;9.50;98.70;;;;;;5032873;28;20193;-65
2022/12/27 03:07:54;;;;;;;80.80;44.30;;;9.40;98.70;;;;;;5038881;28;20271;-66
2022/12/27 03:16:54;;;;;;;88.10;43.30;;;9.40;98.70;;;;;;5037474;28;20201;-66
2022/12/27 03:27:44;;;;;;;69.33;40.97;;;9.40;98.60;;;;;;5038326;28;20580;-66
2022/12/27 03:33:12;;;;;;;81.10;43.37;;;9.40;98.70;;;;;;5035842;28;20247;-66
2022/12/27 03:39:05;;;;;;;81.13;42.43;;;9.40;98.50;;;;;;5038592;28;20231;-66
2022/12/27 03:44:26;;;;;;;77.87;40.93;;;9.30;98.50;;;;;;5038827;28;20277;-66
2022/12/27 03:47:06;;;;;;;73.00;40.40;;;9.30;98.60;;;;;;5034002;28;20270;-66
2022/12/27 03:49:49;;;;;;;62.30;37.57;;;9.30;98.70;;;;;;5037043;28;20521;-65
2022/12/27 03:52:26;;;;;;;65.67;39.37;;;9.30;98.80;;;;;;5033903;28;20192;-66
2022/12/27 03:54:54;;;;;;;71.07;37.03;;;9.30;98.70;;;;;;5034366;28;20199;-66
2022/12/27 03:57:24;;;;;;;73.70;39.63;;;9.30;98.70;;;;;;5038450;28;20216;-65
2022/12/27 03:59:53;;;;;;;65.13;38.17;;;9.30;98.70;;;;;;5036491;28;20199;-66
2022/12/27 04:02:20;;;;;;;59.90;37.23;;;9.30;98.70;;;;;;5028436;28;20230;-66
2022/12/27 04:04:48;;;;;;;64.97;37.10;;;9.30;98.70;;;;;;5035736;28;20502;-66
2022/12/27 04:07:16;;;;;;;63.90;37.93;;;9.30;98.70;;;;;;5035771;28;20206;-65
2022/12/27 04:34:42;;;;;;;76.87;40.93;;;9.10;98.50;;;;;;5032515;28;20201;-66
2022/12/27 04:37:17;;;;;;;73.83;39.30;;;9.10;98.60;;;;;;5037162;28;20565;-66
2022/12/27 04:56:24;;;;;;;63.53;37.67;;;8.90;98.50;;;;;;5039486;28;20200;-66
2022/12/27 05:04:24;;;;;;;185.20;38.73;;;8.70;98.50;;;;;;5033610;28;20200;-66
2022/12/27 05:06:52;;;;;;;217.67;42.57;;;8.70;98.50;;;;;;5035854;28;20207;-66
2022/12/27 05:14:50;;;;;;;70.83;36.03;;;8.60;98.30;;;;;;5033582;28;20222;-66
2022/12/27 05:17:17;;;;;;;80.27;40.57;;;8.50;98.10;;;;;;5034601;28;20203;-66
2022/12/27 05:19:44;;;;;;;69.13;39.30;;;8.40;98.10;;;;;;5032657;28;20579;-66
2022/12/27 05:27:43;;;;;;;88.37;41.83;;;8.50;98.80;;;;;;5037083;28;20285;-66
2022/12/27 05:30:11;;;;;;;68.53;40.57;;;8.50;98.80;;;;;;5033526;28;20202;-66
2022/12/27 05:32:38;;;;;;;75.30;40.67;;;8.60;98.80;;;;;;5032923;28;20195;-66
2022/12/27 05:35:05;;;;;;;79.37;40.77;;;8.60;98.80;;;;;;5036512;28;20211;-66
2022/12/27 05:37:32;;;;;;;74.80;41.13;;;8.70;98.80;;;;;;5033798;28;20588;-66
2022/12/27 05:39:59;;;;;;;72.07;41.43;;;8.70;98.90;;;;;;5035814;28;20253;-66
2022/12/27 05:42:26;;;;;;;72.53;42.03;;;8.70;98.90;;;;;;5033656;28;20212;-66
2022/12/27 05:44:53;;;;;;;61.67;37.07;;;8.80;99.00;;;;;;5033136;28;20625;-66
2022/12/27 05:47:20;;;;;;;65.63;38.07;;;8.80;99.00;;;;;;5032180;28;20196;-66
2022/12/27 05:49:47;;;;;;;63.00;36.93;;;8.80;99.00;;;;;;5034286;28;20209;-66
2022/12/27 05:52:14;;;;;;;67.97;40.40;;;8.80;98.90;;;;;;5031966;28;20219;-66
2022/12/27 05:54:41;;;;;;;65.77;38.47;;;8.90;99.00;;;;;;5033969;28;20203;-66
2022/12/27 05:57:08;;;;;;;79.33;38.40;;;8.90;98.90;;;;;;5033291;28;20208;-66
2022/12/27 05:59:35;;;;;;;70.77;37.33;;;8.90;98.90;;;;;;5036815;28;20227;-66
2022/12/27 06:02:02;;;;;;;63.43;36.93;;;9.00;99.00;;;;;;5027506;28;20196;-65
2022/12/27 06:04:29;;;;;;;62.70;38.07;;;9.00;98.90;;;;;;5034529;28;20641;-66
2022/12/27 06:06:58;;;;;;;60.03;37.57;;;9.00;98.90;;;;;;5033942;28;20233;-66
2022/12/27 06:09:27;;;;;;;80.93;39.87;;;9.00;98.90;;;;;;5034615;28;20209;-66
2022/12/27 06:11:54;;;;;;;67.83;39.07;;;9.00;98.90;;;;;;5035462;28;20646;-66
2022/12/27 06:14:21;;;;;;;84.87;39.87;;;9.10;98.90;;;;;;5033073;28;20209;-66
2022/12/27 06:16:48;;;;;;;74.90;40.03;;;9.00;98.70;;;;;;5033448;28;20719;-64
2022/12/27 06:19:15;;;;;;;63.93;36.20;;;9.10;98.70;;;;;;5033632;28;20712;-66
2022/12/27 06:21:42;;;;;;;62.57;36.13;;;9.00;98.70;;;;;;5032448;28;20210;-66
2022/12/27 06:24:09;;;;;;;59.23;36.87;;;9.10;98.80;;;;;;5033617;28;20260;-66
2022/12/27 06:26:37;;;;;;;66.80;38.83;;;9.10;98.90;;;;;;5034644;28;20645;-66
2022/12/27 06:29:04;;;;;;;69.47;36.77;;;9.10;98.90;;;;;;5034240;28;20213;-66
2022/12/27 06:31:31;;;;;;;59.30;37.10;;;9.10;98.90;;;;;;5033312;28;20199;-66
2022/12/27 06:33:58;;;;;;;68.80;39.73;;;9.20;98.90;;;;;;5034082;28;20208;-65
2022/12/27 06:36:29;;;;;;;56.37;36.73;;;9.20;98.90;;;;;;5032470;28;20200;-65
2022/12/27 06:38:57;;;;;;;58.50;36.33;;;9.20;98.90;;;;;;5035561;28;20673;-66
2022/12/27 06:41:24;;;;;;;61.77;37.70;;;9.20;98.90;;;;;;5035672;28;20197;-66
2022/12/27 06:43:56;;;;;;;58.50;35.00;;;9.30;98.90;;;;;;5031417;28;20663;-66
2022/12/27 06:46:24;;;;;;;67.03;37.63;;;9.20;98.80;;;;;;5035111;28;20207;-65
2022/12/27 06:48:51;;;;;;;70.20;37.57;;;9.30;98.90;;;;;;5037308;28;20199;-65
2022/12/27 06:51:19;;;;;;;58.57;38.17;;;9.30;98.80;;;;;;5037425;28;20212;-65
2022/12/27 06:53:47;;;;;;;62.17;38.40;;;9.30;98.80;;;;;;5032063;28;20209;-65
2022/12/27 06:56:19;;;;;;;67.47;37.73;;;9.30;98.90;;;;;;5041638;28;20214;-66
2022/12/27 06:58:48;;;;;;;69.23;38.37;;;9.30;98.90;;;;;;5039459;28;20212;-65
2022/12/27 07:01:23;;;;;;;61.20;36.30;;;9.30;98.90;;;;;;5036880;28;20284;-65
2022/12/27 07:03:55;;;;;;;66.87;39.80;;;9.30;98.90;;;;;;5034020;28;20542;-67
2022/12/27 07:06:23;;;;;;;70.87;38.97;;;9.40;98.90;;;;;;5038645;28;20187;-65
2022/12/27 07:08:50;;;;;;;76.83;41.27;;;9.40;98.90;;;;;;5036375;28;20213;-66
2022/12/27 07:11:18;;;;;;;72.07;41.93;;;9.40;98.80;;;;;;5036103;28;20245;-66
2022/12/27 07:13:51;;;;;;;76.03;40.97;;;9.40;98.80;;;;;;5030638;28;20699;-66
2022/12/27 07:16:20;;;;;;;76.07;44.37;;;9.50;98.80;;;;;;5035519;28;20222;-66
2022/12/27 07:18:48;;;;;;;70.87;40.30;;;9.50;98.80;;;;;;5032293;28;20213;-66
2022/12/27 07:21:21;;;;;;;78.23;44.67;;;9.50;98.70;;;;;;5035197;28;20198;-66
2022/12/27 07:23:49;;;;;;;84.63;46.20;;;9.50;98.70;;;;;;5033227;28;20304;-66
2022/12/27 07:26:20;;;;;;;110.53;49.87;;;9.50;98.60;;;;;;5038579;28;20201;-66
2022/12/27 07:28:47;;;;;;;108.63;50.33;;;9.50;98.60;;;;;;5034691;28;20623;-66
2022/12/27 07:31:21;;;;;;;113.70;50.17;;;9.50;98.60;;;;;;5032057;28;20564;-66
2022/12/27 07:33:49;;;;;;;110.87;51.03;;;9.50;98.60;;;;;;5034922;28;20190;-66
2022/12/27 07:36:19;;;;;;;104.67;49.00;;;9.50;98.70;;;;;;5036132;28;20205;-66
2022/12/27 07:38:47;;;;;;;114.07;49.87;;;9.50;98.70;;;;;;5035368;28;20666;-66
2022/12/27 07:41:15;;;;;;;101.83;49.37;;;9.60;98.70;;;;;;5033746;28;20252;-66
2022/12/27 07:43:43;;;;;;;110.90;50.17;;;9.60;98.70;;;;;;5030538;28;20223;-65
2022/12/27 07:46:14;;;;;;;113.47;50.67;;;9.60;98.70;;;;;;5034340;28;20199;-65
2022/12/27 07:48:42;;;;;;;114.97;49.80;;;9.60;98.70;;;;;;5032603;28;20201;-65
2022/12/27 07:51:11;;;;;;;92.03;46.83;;;9.60;98.70;;;;;;5034209;28;20200;-66
2022/12/27 07:53:38;;;;;;;97.33;45.50;;;9.70;98.80;;;;;;5032224;28;20201;-65
2022/12/27 07:56:11;;;;;;;86.37;44.37;;;9.70;98.80;;;;;;5034529;28;20297;-65
2022/12/27 07:58:40;;;;;;;84.47;42.87;;;9.70;98.80;;;;;;5037208;28;20593;-65
2022/12/27 08:01:09;;;;;;;87.60;43.47;;;9.70;98.80;;;;;;5034933;28;20686;-65
2022/12/27 08:03:37;;;;;;;81.87;42.80;;;9.70;98.80;;;;;;5035401;28;20223;-66
2022/12/27 08:06:05;;;;;;;88.23;43.87;;;9.80;98.80;;;;;;5037660;28;20223;-65
2022/12/27 08:08:38;;;;;;;77.43;42.30;;;9.80;98.80;;;;;;5035672;28;20511;-65
2022/12/27 08:11:06;;;;;;;85.10;42.87;;;9.80;98.80;;;;;;5039003;28;20666;-65
2022/12/27 08:13:33;;;;;;;76.73;41.50;;;9.90;98.80;;;;;;5033063;28;20243;-66
2022/12/27 08:16:00;;;;;;;85.10;41.17;;;9.90;98.80;;;;;;5034600;28;20203;-65
2022/12/27 08:18:27;;;;;;;81.80;42.97;;;9.90;98.80;;;;;;5034847;28;20287;-66
2022/12/27 08:20:54;;;;;;;72.73;40.83;;;9.90;98.80;;;;;;5030968;28;20197;-66
2022/12/27 08:23:22;;;;;;;80.73;42.13;;;9.90;98.80;;;;;;5028701;28;20516;-65
2022/12/27 08:25:49;;;;;;;75.90;41.77;;;10.00;98.80;;;;;;5033181;28;20199;-65
2022/12/27 08:28:17;;;;;;;86.73;43.63;;;10.00;98.80;;;;;;5034202;28;20695;-65
2022/12/27 08:30:45;;;;;;;79.20;42.37;;;10.00;99.00;;;;;;5033684;28;20574;-65
2022/12/27 08:33:14;;;;;;;83.47;42.80;;;10.10;98.70;;;;;;5032087;28;20205;-65
2022/12/27 08:35:43;;;;;;;83.70;43.97;;;10.10;98.70;;;;;;5036649;28;20201;-66
2022/12/27 08:38:20;;;;;;;75.50;40.37;;;10.10;98.60;;;;;;5036511;28;20286;-65
2022/12/27 08:40:47;;;;;;;88.37;44.30;;;10.10;98.60;;;;;;5034106;28;20294;-65
2022/12/27 08:43:14;;;;;;;79.00;43.20;;;10.10;98.60;;;;;;5032705;28;20209;-65
2022/12/27 08:45:41;;;;;;;77.70;41.77;;;10.10;98.60;;;;;;5032240;28;20509;-65
2022/12/27 08:48:08;;;;;;;83.57;42.70;;;10.20;98.60;;;;;;5034042;28;20201;-65
2022/12/27 08:50:35;;;;;;;89.80;42.87;;;10.20;98.60;;;;;;5034352;28;20207;-65
2022/12/27 08:53:03;;;;;;;77.07;42.13;;;10.30;98.60;;;;;;5032477;28;20202;-65
2022/12/27 08:55:31;;;;;;;75.97;43.13;;;10.30;98.60;;;;;;5035106;28;20639;-65
2022/12/27 08:58:00;;;;;;;82.97;42.93;;;10.30;98.50;;;;;;5031443;28;20212;-65
2022/12/27 09:00:28;;;;;;;89.47;44.50;;;10.30;98.50;;;;;;5031757;28;20262;-65
2022/12/27 09:02:56;;;;;;;87.90;45.47;;;10.30;98.50;;;;;;5034483;28;20197;-65
2022/12/27 09:05:25;;;;;;;84.33;42.57;;;10.30;98.50;;;;;;5038188;28;20207;-65
2022/12/27 09:07:52;;;;;;;87.67;42.17;;;10.40;98.50;;;;;;5035397;28;20665;-65
2022/12/27 09:10:20;;;;;;;85.73;43.50;;;10.40;98.50;;;;;;5034032;28;20206;-65
2022/12/27 09:12:47;;;;;;;88.13;44.03;;;10.50;98.60;;;;;;5033802;28;20259;-66
2022/12/27 09:15:14;;;;;;;84.73;41.37;;;10.50;98.60;;;;;;5035111;28;20254;-65
2022/12/27 09:17:42;;;;;;;94.73;43.47;;;10.50;98.60;;;;;;5033682;28;20228;-66
2022/12/27 09:20:11;;;;;;;92.73;45.03;;;10.60;98.50;;;;;;5028270;28;20667;-65
2022/12/27 09:22:38;;;;;;;99.20;44.13;;;10.60;98.40;;;;;;5033041;28;20223;-65
2022/12/27 09:25:06;;;;;;;96.17;45.17;;;10.60;98.70;;;;;;5037040;28;20692;-65
2022/12/27 09:27:35;;;;;;;95.33;43.03;;;10.70;98.50;;;;;;5034924;28;20229;-65
2022/12/27 09:30:04;;;;;;;100.80;44.27;;;10.70;98.50;;;;;;5031983;28;20215;-66
2022/12/27 09:32:31;;;;;;;96.37;44.37;;;10.70;98.50;;;;;;5032463;28;20549;-66
2022/12/27 09:34:58;;;;;;;109.47;46.07;;;10.80;98.50;;;;;;5035395;28;20201;-66
2022/12/27 09:37:26;;;;;;;97.60;45.07;;;10.80;98.50;;;;;;5036483;28;20217;-66
2022/12/27 09:39:53;;;;;;;96.53;44.07;;;10.80;98.50;;;;;;5036459;28;20239;-66
2022/12/27 09:42:42;;;;;;;103.10;45.67;;;10.90;98.40;;;;;;5032842;28;20284;-66
2022/12/27 09:45:38;;;;;;;102.27;45.37;;;10.90;98.30;;;;;;5027465;28;20233;-66
2022/12/27 09:48:28;;;;;;;110.23;47.40;;;11.00;98.30;;;;;;5035665;28;20210;-66
2022/12/27 09:51:16;;;;;;;108.80;45.07;;;11.00;98.20;;;;;;5036563;28;20653;-66
2022/12/27 09:54:00;;;;;;;113.60;48.20;;;11.10;98.00;;;;;;5028421;28;20268;-66
2022/12/27 09:56:29;;;;;;;106.20;48.03;;;11.10;98.00;;;;;;5036081;28;20201;-66
2022/12/27 09:59:28;;;;;;;112.07;46.33;;;11.10;97.90;;;;;;5033491;28;20294;-66
2022/12/27 10:01:55;;;;;;;113.23;46.00;;;11.10;98.00;;;;;;5033034;28;20202;-66
2022/12/27 10:04:22;;;;;;;109.93;47.60;;;11.10;98.00;;;;;;5031796;28;20292;-66
2022/12/27 10:07:11;;;;;;;108.90;43.43;;;11.10;98.00;;;;;;5037317;28;20216;-66
2022/12/27 10:10:20;;;;;;;105.97;42.53;;;11.10;97.80;;;;;;5036949;28;20272;-66
2022/12/27 10:13:13;;;;;;;112.90;45.30;;;11.10;97.70;;;;;;5032341;28;20626;-66
2022/12/27 10:16:05;;;;;;;115.80;47.43;;;11.10;97.70;;;;;;5031283;28;20218;-66
2022/12/27 10:18:47;;;;;;;124.47;47.80;;;11.10;97.80;;;;;;5035345;28;20311;-66
2022/12/27 10:21:22;;;;;;;105.87;44.87;;;11.10;97.90;;;;;;5037424;28;20219;-66
2022/12/27 10:24:00;;;;;;;111.53;46.57;;;11.10;97.80;;;;;;5034189;28;20693;-66
2022/12/27 10:26:27;;;;;;;115.50;45.33;;;11.10;97.90;;;;;;5038834;28;20666;-66
2022/12/27 10:29:23;;;;;;;114.33;47.23;;;11.10;97.80;;;;;;5035361;28;20206;-65
2022/12/27 10:31:50;;;;;;;113.70;46.07;;;11.10;97.90;;;;;;5037657;28;20201;-66
2022/12/27 10:34:23;;;;;;;102.10;43.10;;;11.20;97.90;;;;;;5037337;28;20206;-66
2022/12/27 10:36:52;;;;;;;110.07;44.23;;;11.20;97.90;;;;;;5041516;28;20225;-66
2022/12/27 10:39:25;;;;;;;117.63;44.30;;;11.30;97.90;;;;;;5036834;28;20237;-66
2022/12/27 10:42:20;;;;;;;101.10;43.73;;;11.30;97.90;;;;;;5036820;28;20211;-66
2022/12/27 10:44:46;;;;;;;103.40;43.00;;;11.40;97.80;;;;;;5036692;28;20209;-66
2022/12/27 10:47:15;;;;;;;102.77;44.00;;;11.40;97.60;;;;;;5039006;28;20524;-66
2022/12/27 10:50:00;;;;;;;106.67;44.37;;;11.40;97.30;;;;;;5038461;28;20199;-66
2022/12/27 10:52:33;;;;;;;106.00;45.43;;;11.50;97.30;;;;;;5033139;28;20260;-66
2022/12/27 10:55:00;;;;;;;111.17;46.03;;;11.50;97.40;;;;;;5036581;28;20206;-66
2022/12/27 10:57:31;;;;;;;104.40;41.20;;;11.40;97.50;;;;;;5039702;28;20214;-66
2022/12/27 11:00:07;;;;;;;106.53;43.23;;;11.50;97.50;;;;;;5036002;28;20229;-67
2022/12/27 11:02:59;;;;;;;112.97;44.83;;;11.50;97.40;;;;;;5033018;28;20205;-66
2022/12/27 11:05:29;;;;;;;103.57;42.43;;;11.50;97.40;;;;;;5040114;28;20652;-66
2022/12/27 11:07:56;;;;;;;100.80;43.30;;;11.60;97.50;;;;;;5038912;28;20198;-66
2022/12/27 11:10:26;;;;;;;104.23;42.67;;;11.60;97.50;;;;;;5039366;28;20202;-66
2022/12/27 11:13:04;;;;;;;112.50;45.27;;;11.60;97.40;;;;;;5031575;28;20254;-66
2022/12/27 11:15:39;;;;;;;103.10;44.67;;;11.70;97.30;;;;;;5042096;28;20196;-65
2022/12/27 11:18:15;;;;;;;109.77;43.33;;;11.70;97.20;;;;;;5037634;28;20197;-66
2022/12/27 11:20:53;;;;;;;100.97;43.23;;;11.70;97.10;;;;;;5037422;28;20214;-65
2022/12/27 11:23:23;;;;;;;108.83;45.53;;;11.70;97.00;;;;;;5033349;28;20227;-66
2022/12/27 11:26:06;;;;;;;100.80;40.87;;;11.80;97.00;;;;;;5041162;28;20208;-66
2022/12/27 11:28:53;;;;;;;109.90;42.37;;;11.80;97.00;;;;;;5037945;28;20539;-65
2022/12/27 11:31:37;;;;;;;114.93;46.87;;;11.80;97.00;;;;;;5034373;28;20200;-66
2022/12/27 11:34:14;;;;;;;108.33;46.43;;;11.80;97.00;;;;;;5035866;28;20707;-65
2022/12/27 11:36:45;;;;;;;106.03;44.97;;;11.80;97.00;;;;;;5041491;28;20202;-65
2022/12/27 11:39:52;;;;;;;105.83;45.17;;;11.90;97.10;;;;;;5036341;28;20230;-65
2022/12/27 11:42:38;;;;;;;100.07;44.23;;;11.90;97.30;;;;;;5029642;28;20211;-65
2022/12/27 11:45:17;;;;;;;115.53;46.87;;;11.90;97.00;;;;;;5032785;28;20215;-65
2022/12/27 11:47:48;;;;;;;105.40;45.57;;;11.90;96.90;;;;;;5034390;28;20207;-65
2022/12/27 11:50:27;;;;;;;103.53;45.33;;;11.90;97.00;;;;;;5031606;28;20229;-65
2022/12/27 11:53:28;;;;;;;105.43;44.93;;;12.00;96.90;;;;;;5032378;28;20213;-65
2022/12/27 11:56:07;;;;;;;103.03;43.13;;;12.00;96.90;;;;;;5042805;28;20212;-66
2022/12/27 11:58:47;;;;;;;104.97;43.87;;;12.00;96.90;;;;;;5033126;28;20631;-65
2022/12/27 12:01:38;;;;;;;113.53;46.30;;;12.00;97.20;;;;;;5037052;28;20229;-65
2022/12/27 12:04:31;;;;;;;108.37;45.43;;;12.10;96.90;;;;;;5034701;28;20202;-65
2022/12/27 12:07:13;;;;;;;116.97;49.67;;;12.10;96.80;;;;;;5038217;28;20191;-66
2022/12/27 12:10:04;;;;;;;113.90;47.60;;;12.20;96.80;;;;;;5035173;28;20196;-65
2022/12/27 12:13:12;;;;;;;112.77;46.87;;;12.20;96.80;;;;;;5034598;28;20242;-66
2022/12/27 12:16:17;;;;;;;102.63;44.37;;;12.20;96.60;;;;;;5036114;28;20208;-65
2022/12/27 12:19:09;;;;;;;109.23;45.83;;;12.20;96.70;;;;;;5036426;28;20286;-65
2022/12/27 12:21:46;;;;;;;108.80;47.40;;;12.10;96.40;;;;;;5033887;28;20216;-66
2022/12/27 12:24:35;;;;;;;118.30;47.13;;;12.10;96.30;;;;;;5037045;28;20332;-66
2022/12/27 12:27:34;;;;;;;111.73;46.03;;;12.00;96.40;;;;;;5036400;28;20211;-66
2022/12/27 12:30:20;;;;;;;115.63;48.70;;;12.00;96.50;;;;;;5031974;28;20221;-65
2022/12/27 12:33:11;;;;;;;109.13;45.43;;;12.00;96.60;;;;;;5033299;28;20658;-66
2022/12/27 12:36:06;;;;;;;116.13;48.87;;;11.90;97.00;;;;;;5019780;28;20263;-66
2022/12/27 12:39:01;;;;;;;118.93;49.17;;;12.00;96.70;;;;;;5034316;28;20203;-66
2022/12/27 12:41:47;;;;;;;118.87;45.20;;;11.90;96.80;;;;;;5033864;28;20655;-66
2022/12/27 12:44:23;;;;;;;124.13;49.87;;;12.00;96.90;;;;;;5033211;28;20209;-65
2022/12/27 12:47:05;;;;;;;115.93;48.07;;;12.00;96.70;;;;;;5036999;28;20201;-64
2022/12/27 12:49:50;;;;;;;120.80;49.60;;;12.00;96.70;;;;;;5037262;28;20206;-66
2022/12/27 12:52:50;;;;;;;114.70;47.80;;;12.00;96.70;;;;;;5031238;28;20815;-65
2022/12/27 12:55:23;;;;;;;113.07;46.67;;;12.10;96.60;;;;;;5035285;28;20761;-66
2022/12/27 12:58:17;;;;;;;120.10;50.33;;;12.10;96.40;;;;;;5035382;28;20263;-66
2022/12/27 13:00:59;;;;;;;118.67;50.07;;;12.10;96.30;;;;;;5032166;28;20221;-66
2022/12/27 13:03:47;;;;;;;118.00;51.73;;;12.00;96.30;;;;;;5034955;28;20492;-65
2022/12/27 13:06:40;;;;;;;117.07;51.07;;;12.00;96.30;;;;;;5035684;28;20203;-65
2022/12/27 13:09:15;;;;;;;117.77;47.43;;;12.00;96.40;;;;;;5037807;28;20627;-65
2022/12/27 13:11:43;;;;;;;115.67;48.70;;;11.90;96.50;;;;;;5030690;28;20202;-65
2022/12/27 13:14:18;;;;;;;118.93;50.17;;;11.80;96.40;;;;;;5034435;28;20249;-65
2022/12/27 13:16:59;;;;;;;117.23;46.73;;;11.80;96.40;;;;;;5034817;28;20224;-65
2022/12/27 13:19:51;;;;;;;110.00;48.00;;;11.80;96.60;;;;;;5034427;28;20286;-66
2022/12/27 13:22:45;;;;;;;98.83;45.50;;;11.70;96.60;;;;;;5034311;28;20618;-66
2022/12/27 13:25:41;;;;;;;104.73;48.27;;;11.70;96.80;;;;;;5031973;28;20199;-65
2022/12/27 13:28:27;;;;;;;105.03;47.93;;;11.70;96.80;;;;;;5030104;28;20197;-65
2022/12/27 13:31:32;;;;;;;100.97;45.33;;;11.70;96.90;;;;;;5032683;28;20223;-65
2022/12/27 13:34:02;;;;;;;103.90;46.67;;;11.80;97.00;;;;;;5033185;28;20250;-66
2022/12/27 13:36:35;;;;;;;95.23;44.10;;;11.80;96.90;;;;;;5033490;28;20202;-65
2022/12/27 13:39:02;;;;;;;99.03;44.57;;;11.80;96.90;;;;;;5035671;28;20465;-65
2022/12/27 13:41:57;;;;;;;100.17;44.47;;;11.80;96.90;;;;;;5035844;28;20246;-65
2022/12/27 13:44:30;;;;;;;104.43;45.13;;;11.80;97.00;;;;;;5032788;28;20206;-65
2022/12/27 13:47:12;;;;;;;99.03;45.80;;;11.90;97.00;;;;;;5035309;28;20204;-65
2022/12/27 13:49:50;;;;;;;96.57;42.93;;;11.90;96.90;;;;;;5037167;28;20197;-66
2022/12/27 13:53:02;;;;;;;98.07;44.10;;;12.00;96.80;;;;;;5029557;28;20206;-65
2022/12/27 13:55:41;;;;;;;94.33;44.90;;;12.00;96.70;;;;;;5038436;28;20263;-65
2022/12/27 13:58:23;;;;;;;101.13;44.73;;;12.00;96.70;;;;;;5032127;28;20539;-65
2022/12/27 14:01:27;;;;;;;99.53;44.23;;;12.10;96.70;;;;;;5036769;28;20661;-65
2022/12/27 14:04:22;;;;;;;101.60;45.70;;;12.10;96.70;;;;;;5038770;28;20203;-66
2022/12/27 14:06:49;;;;;;;102.67;44.93;;;12.20;96.70;;;;;;5037204;28;20688;-65
2022/12/27 14:09:51;;;;;;;98.13;44.97;;;12.20;96.60;;;;;;5039493;28;20258;-65
2022/12/27 14:12:44;;;;;;;92.40;43.63;;;12.20;96.60;;;;;;5031224;28;20248;-66
2022/12/27 14:15:17;;;;;;;100.20;45.00;;;12.30;96.50;;;;;;5039128;28;20534;-66
2022/12/27 14:18:18;;;;;;;98.80;43.20;;;12.30;96.40;;;;;;5035921;28;20197;-66
2022/12/27 14:21:01;;;;;;;94.83;44.60;;;12.20;96.20;;;;;;5035941;28;20276;-65
2022/12/27 14:23:46;;;;;;;87.43;42.57;;;12.20;95.80;;;;;;5032494;28;20657;-65
2022/12/27 14:26:18;;;;;;;96.47;44.20;;;12.20;95.80;;;;;;5041170;28;20205;-66
2022/12/27 14:29:13;;;;;;;105.10;45.43;;;12.20;95.80;;;;;;5036011;28;20225;-65
2022/12/27 14:32:08;;;;;;;104.87;48.60;;;12.10;95.90;;;;;;5038408;28;20198;-65
2022/12/27 14:35:09;;;;;;;110.07;45.93;;;12.10;96.00;;;;;;5038139;28;20202;-65
2022/12/27 14:38:13;;;;;;;106.00;46.20;;;12.00;96.00;;;;;;5005471;28;20687;-65
2022/12/27 14:40:46;;;;;;;105.70;45.83;;;12.00;96.10;;;;;;5035342;28;20208;-65
2022/12/27 14:43:29;;;;;;;105.30;45.20;;;12.00;96.20;;;;;;5036484;28;20202;-65
2022/12/27 14:46:17;;;;;;;116.30;46.70;;;11.90;96.20;;;;;;5036034;28;20268;-65
2022/12/27 14:48:53;;;;;;;106.97;45.83;;;11.90;96.30;;;;;;5036708;28;20281;-65
2022/12/27 14:51:57;;;;;;;94.87;42.73;;;11.90;96.40;;;;;;5034765;28;20252;-65
2022/12/27 14:54:47;;;;;;;109.70;46.70;;;11.80;96.50;;;;;;5042555;28;20206;-65
2022/12/27 14:57:41;;;;;;;108.63;46.43;;;11.80;96.50;;;;;;5036639;28;20204;-65